sensor_id;sensor_type;location;lat;lon;timestamp;temperature;humidity
36800;DHT22;22752;51.960;5.886;2023-10-31T00:01:49;11.60;99.90
36800;DHT22;22752;51.960;5.886;2023-10-31T00:04:15;11.60;99.90
36800;DHT22;22752;51.960;5.886;2023-10-31T00:06:41;11.50;99.90
36800;DHT22;22752;51.960;5.886;2023-10-31T00:09:06;11.40;99.90
36800;DHT22;22752;51.960;5.886;2023-10-31T00:11:32;11.40;99.90
36800;DHT22;22752;51.960;5.886;2023-10-31T00:13:57;11.40;99.90
36800;DHT22;22752;51.960;5.886;2023-10-31T00:16:23;11.30;99.90
36800;DHT22;22752;51.960;5.886;2023-10-31T00:18:49;11.30;99.90
36800;DHT22;22752;51.960;5.886;2023-10-31T00:21:15;11.30;99.90
36800;DHT22;22752;51.960;5.886;2023-10-31T00:23:45;11.30;99.90
36800;DHT22;22752;51.960;5.886;2023-10-31T00:26:11;11.30;99.90
36800;DHT22;22752;51.960;5.886;2023-10-31T00:28:37;11.30;99.90
36800;DHT22;22752;51.960;5.886;2023-10-31T00:31:03;11.30;99.90
36800;DHT22;22752;51.960;5.886;2023-10-31T00:33:29;11.30;99.90
36800;DHT22;22752;51.960;5.886;2023-10-31T00:35:55;11.30;99.90
36800;DHT22;22752;51.960;5.886;2023-10-31T00:38:21;11.30;99.90
36800;DHT22;22752;51.960;5.886;2023-10-31T00:40:46;11.30;99.90
36800;DHT22;22752;51.960;5.886;2023-10-31T00:43:12;11.30;99.90
36800;DHT22;22752;51.960;5.886;2023-10-31T00:45:38;11.30;99.90
36800;DHT22;22752;51.960;5.886;2023-10-31T00:48:03;11.20;99.90
36800;DHT22;22752;51.960;5.886;2023-10-31T00:50:29;11.20;99.90
36800;DHT22;22752;51.960;5.886;2023-10-31T00:52:55;11.20;99.90
36800;DHT22;22752;51.960;5.886;2023-10-31T00:55:20;11.10;99.90
36800;DHT22;22752;51.960;5.886;2023-10-31T00:57:46;11.10;99.90
36800;DHT22;22752;51.960;5.886;2023-10-31T01:00:12;11.10;99.90
36800;DHT22;22752;51.960;5.886;2023-10-31T01:02:38;11.00;99.90
36800;DHT22;22752;51.960;5.886;2023-10-31T01:05:04;11.00;99.90
36800;DHT22;22752;51.960;5.886;2023-10-31T01:07:29;11.00;99.90
36800;DHT22;22752;51.960;5.886;2023-10-31T01:09:55;11.00;99.90
36800;DHT22;22752;51.960;5.886;2023-10-31T01:12:20;11.00;99.90
36800;DHT22;22752;51.960;5.886;2023-10-31T01:14:46;11.00;99.90
36800;DHT22;22752;51.960;5.886;2023-10-31T01:17:12;11.00;99.90
36800;DHT22;22752;51.960;5.886;2023-10-31T01:19:37;11.00;99.90
36800;DHT22;22752;51.960;5.886;2023-10-31T01:22:03;11.00;99.90
36800;DHT22;22752;51.960;5.886;2023-10-31T01:24:29;11.00;99.90
36800;DHT22;22752;51.960;5.886;2023-10-31T01:26:54;11.00;99.90
36800;DHT22;22752;51.960;5.886;2023-10-31T01:29:20;11.00;99.90
36800;DHT22;22752;51.960;5.886;2023-10-31T01:31:46;11.00;99.90
36800;DHT22;22752;51.960;5.886;2023-10-31T01:34:11;11.00;99.90
36800;DHT22;22752;51.960;5.886;2023-10-31T01:36:37;11.00;99.90
36800;DHT22;22752;51.960;5.886;2023-10-31T01:39:02;11.00;99.90
36800;DHT22;22752;51.960;5.886;2023-10-31T01:41:28;11.00;99.90
36800;DHT22;22752;51.960;5.886;2023-10-31T01:43:54;11.00;99.90
36800;DHT22;22752;51.960;5.886;2023-10-31T01:46:19;11.00;99.90
36800;DHT22;22752;51.960;5.886;2023-10-31T01:48:45;11.00;99.90
36800;DHT22;22752;51.960;5.886;2023-10-31T01:51:11;11.10;99.90
36800;DHT22;22752;51.960;5.886;2023-10-31T01:53:37;11.10;99.90
36800;DHT22;22752;51.960;5.886;2023-10-31T01:56:03;11.10;99.90
36800;DHT22;22752;51.960;5.886;2023-10-31T01:58:37;11.00;99.90
36800;DHT22;22752;51.960;5.886;2023-10-31T02:01:04;11.10;99.90
36800;DHT22;22752;51.960;5.886;2023-10-31T02:03:30;11.10;99.90
36800;DHT22;22752;51.960;5.886;2023-10-31T02:05:57;11.10;99.90
36800;DHT22;22752;51.960;5.886;2023-10-31T02:08:23;11.10;99.90
36800;DHT22;22752;51.960;5.886;2023-10-31T02:10:49;11.10;99.90
36800;DHT22;22752;51.960;5.886;2023-10-31T02:13:17;11.10;99.90
36800;DHT22;22752;51.960;5.886;2023-10-31T02:15:44;11.10;99.90
36800;DHT22;22752;51.960;5.886;2023-10-31T02:18:10;11.10;99.90
36800;DHT22;22752;51.960;5.886;2023-10-31T02:20:36;11.10;99.90
36800;DHT22;22752;51.960;5.886;2023-10-31T02:23:04;11.10;99.90
36800;DHT22;22752;51.960;5.886;2023-10-31T02:25:30;11.10;99.90
36800;DHT22;22752;51.960;5.886;2023-10-31T02:27:56;11.10;99.90
36800;DHT22;22752;51.960;5.886;2023-10-31T02:30:22;11.10;99.90
36800;DHT22;22752;51.960;5.886;2023-10-31T02:32:48;11.10;99.90
36800;DHT22;22752;51.960;5.886;2023-10-31T02:35:15;11.10;99.90
36800;DHT22;22752;51.960;5.886;2023-10-31T02:37:41;11.10;99.90
36800;DHT22;22752;51.960;5.886;2023-10-31T02:40:07;11.10;99.90
36800;DHT22;22752;51.960;5.886;2023-10-31T02:42:33;11.10;99.90
36800;DHT22;22752;51.960;5.886;2023-10-31T02:44:59;11.10;99.90
36800;DHT22;22752;51.960;5.886;2023-10-31T02:47:24;11.10;99.90
36800;DHT22;22752;51.960;5.886;2023-10-31T02:49:50;11.10;99.90
36800;DHT22;22752;51.960;5.886;2023-10-31T02:52:15;11.10;99.90
36800;DHT22;22752;51.960;5.886;2023-10-31T02:54:41;11.20;99.90
36800;DHT22;22752;51.960;5.886;2023-10-31T02:57:07;11.10;99.90
36800;DHT22;22752;51.960;5.886;2023-10-31T02:59:33;11.20;99.90
36800;DHT22;22752;51.960;5.886;2023-10-31T03:01:59;11.10;99.90
36800;DHT22;22752;51.960;5.886;2023-10-31T03:04:25;11.10;99.90
36800;DHT22;22752;51.960;5.886;2023-10-31T03:06:50;11.10;99.90
36800;DHT22;22752;51.960;5.886;2023-10-31T03:09:16;11.10;99.90
36800;DHT22;22752;51.960;5.886;2023-10-31T03:11:42;11.10;99.90
36800;DHT22;22752;51.960;5.886;2023-10-31T03:14:08;11.10;99.90
36800;DHT22;22752;51.960;5.886;2023-10-31T03:16:33;11.20;99.90
36800;DHT22;22752;51.960;5.886;2023-10-31T03:18:59;11.20;99.90
36800;DHT22;22752;51.960;5.886;2023-10-31T03:21:25;11.20;99.90
36800;DHT22;22752;51.960;5.886;2023-10-31T03:23:51;11.20;99.90
36800;DHT22;22752;51.960;5.886;2023-10-31T03:26:19;11.20;99.90
36800;DHT22;22752;51.960;5.886;2023-10-31T03:28:45;11.20;99.90
36800;DHT22;22752;51.960;5.886;2023-10-31T03:31:12;11.10;99.90
36800;DHT22;22752;51.960;5.886;2023-10-31T03:33:38;11.10;99.90
36800;DHT22;22752;51.960;5.886;2023-10-31T03:36:04;11.20;99.90
36800;DHT22;22752;51.960;5.886;2023-10-31T03:38:31;11.10;99.90
36800;DHT22;22752;51.960;5.886;2023-10-31T03:40:57;11.20;99.90
36800;DHT22;22752;51.960;5.886;2023-10-31T03:43:22;11.20;99.90
36800;DHT22;22752;51.960;5.886;2023-10-31T03:45:48;11.20;99.90
36800;DHT22;22752;51.960;5.886;2023-10-31T03:48:15;11.20;99.90
36800;DHT22;22752;51.960;5.886;2023-10-31T03:50:41;11.20;99.90
36800;DHT22;22752;51.960;5.886;2023-10-31T03:53:06;11.20;99.90
36800;DHT22;22752;51.960;5.886;2023-10-31T03:55:32;11.10;99.90
36800;DHT22;22752;51.960;5.886;2023-10-31T03:57:57;11.20;99.90
36800;DHT22;22752;51.960;5.886;2023-10-31T04:00:23;11.20;99.90
36800;DHT22;22752;51.960;5.886;2023-10-31T04:02:49;11.20;99.90
36800;DHT22;22752;51.960;5.886;2023-10-31T04:05:15;11.20;99.90
36800;DHT22;22752;51.960;5.886;2023-10-31T04:07:40;11.20;99.90
36800;DHT22;22752;51.960;5.886;2023-10-31T04:10:06;11.20;99.90
36800;DHT22;22752;51.960;5.886;2023-10-31T04:12:33;11.20;99.90
36800;DHT22;22752;51.960;5.886;2023-10-31T04:14:59;11.10;99.90
36800;DHT22;22752;51.960;5.886;2023-10-31T04:17:24;11.10;99.90
36800;DHT22;22752;51.960;5.886;2023-10-31T04:19:50;11.20;99.90
36800;DHT22;22752;51.960;5.886;2023-10-31T04:22:16;11.10;99.90
36800;DHT22;22752;51.960;5.886;2023-10-31T04:24:41;11.10;99.90
36800;DHT22;22752;51.960;5.886;2023-10-31T04:27:08;11.00;99.90
36800;DHT22;22752;51.960;5.886;2023-10-31T04:29:33;11.10;99.90
36800;DHT22;22752;51.960;5.886;2023-10-31T04:31:59;11.00;99.90
36800;DHT22;22752;51.960;5.886;2023-10-31T04:34:24;11.00;99.90
36800;DHT22;22752;51.960;5.886;2023-10-31T04:36:50;11.00;99.90
36800;DHT22;22752;51.960;5.886;2023-10-31T04:39:16;11.00;99.90
36800;DHT22;22752;51.960;5.886;2023-10-31T04:41:41;11.00;99.90
36800;DHT22;22752;51.960;5.886;2023-10-31T04:44:07;11.00;99.90
36800;DHT22;22752;51.960;5.886;2023-10-31T04:46:32;11.00;99.90
36800;DHT22;22752;51.960;5.886;2023-10-31T04:48:59;11.00;99.90
36800;DHT22;22752;51.960;5.886;2023-10-31T04:51:24;11.00;99.90
36800;DHT22;22752;51.960;5.886;2023-10-31T04:53:50;11.10;99.90
36800;DHT22;22752;51.960;5.886;2023-10-31T04:56:16;11.10;99.90
36800;DHT22;22752;51.960;5.886;2023-10-31T04:58:42;11.10;99.90
36800;DHT22;22752;51.960;5.886;2023-10-31T05:01:12;11.10;99.90
36800;DHT22;22752;51.960;5.886;2023-10-31T05:03:38;11.10;99.90
36800;DHT22;22752;51.960;5.886;2023-10-31T05:06:05;11.10;99.90
36800;DHT22;22752;51.960;5.886;2023-10-31T05:08:31;11.10;99.90
36800;DHT22;22752;51.960;5.886;2023-10-31T05:10:58;11.10;99.90
36800;DHT22;22752;51.960;5.886;2023-10-31T05:13:24;11.10;99.90
36800;DHT22;22752;51.960;5.886;2023-10-31T05:15:50;11.10;99.90
36800;DHT22;22752;51.960;5.886;2023-10-31T05:18:16;11.10;99.90
36800;DHT22;22752;51.960;5.886;2023-10-31T05:20:42;11.10;99.90
36800;DHT22;22752;51.960;5.886;2023-10-31T05:23:08;11.10;99.90
36800;DHT22;22752;51.960;5.886;2023-10-31T05:25:34;11.00;99.90
36800;DHT22;22752;51.960;5.886;2023-10-31T05:28:00;11.00;99.90
36800;DHT22;22752;51.960;5.886;2023-10-31T05:30:25;11.00;99.90
36800;DHT22;22752;51.960;5.886;2023-10-31T05:32:51;11.00;99.90
36800;DHT22;22752;51.960;5.886;2023-10-31T05:35:17;10.90;99.90
36800;DHT22;22752;51.960;5.886;2023-10-31T05:37:43;10.90;99.90
36800;DHT22;22752;51.960;5.886;2023-10-31T05:40:10;10.90;99.90
36800;DHT22;22752;51.960;5.886;2023-10-31T05:42:35;10.90;99.90
36800;DHT22;22752;51.960;5.886;2023-10-31T05:45:01;10.90;99.90
36800;DHT22;22752;51.960;5.886;2023-10-31T05:47:27;10.90;99.90
36800;DHT22;22752;51.960;5.886;2023-10-31T05:49:53;10.90;99.90
36800;DHT22;22752;51.960;5.886;2023-10-31T05:52:19;10.90;99.90
36800;DHT22;22752;51.960;5.886;2023-10-31T05:54:44;10.90;99.90
36800;DHT22;22752;51.960;5.886;2023-10-31T05:57:10;10.80;99.90
36800;DHT22;22752;51.960;5.886;2023-10-31T05:59:35;10.90;99.90
36800;DHT22;22752;51.960;5.886;2023-10-31T06:02:01;10.80;99.90
36800;DHT22;22752;51.960;5.886;2023-10-31T06:04:27;10.80;99.90
36800;DHT22;22752;51.960;5.886;2023-10-31T06:06:52;10.80;99.90
36800;DHT22;22752;51.960;5.886;2023-10-31T06:09:18;10.80;99.90
36800;DHT22;22752;51.960;5.886;2023-10-31T06:11:43;10.70;99.90
36800;DHT22;22752;51.960;5.886;2023-10-31T06:14:10;10.70;99.90
36800;DHT22;22752;51.960;5.886;2023-10-31T06:16:43;10.60;99.90
36800;DHT22;22752;51.960;5.886;2023-10-31T06:19:09;10.60;99.90
36800;DHT22;22752;51.960;5.886;2023-10-31T06:21:36;10.60;99.90
36800;DHT22;22752;51.960;5.886;2023-10-31T06:24:02;10.50;99.90
36800;DHT22;22752;51.960;5.886;2023-10-31T06:26:28;10.40;99.90
36800;DHT22;22752;51.960;5.886;2023-10-31T06:28:54;10.40;99.90
36800;DHT22;22752;51.960;5.886;2023-10-31T06:31:19;10.30;99.90
36800;DHT22;22752;51.960;5.886;2023-10-31T06:33:45;10.30;99.90
36800;DHT22;22752;51.960;5.886;2023-10-31T06:36:11;10.30;99.90
36800;DHT22;22752;51.960;5.886;2023-10-31T06:38:37;10.30;99.90
36800;DHT22;22752;51.960;5.886;2023-10-31T06:41:02;10.30;99.90
36800;DHT22;22752;51.960;5.886;2023-10-31T06:43:28;10.30;99.90
36800;DHT22;22752;51.960;5.886;2023-10-31T06:45:55;10.40;99.90
36800;DHT22;22752;51.960;5.886;2023-10-31T06:48:20;10.50;99.90
36800;DHT22;22752;51.960;5.886;2023-10-31T06:50:46;10.50;99.90
36800;DHT22;22752;51.960;5.886;2023-10-31T06:53:11;10.60;99.90
36800;DHT22;22752;51.960;5.886;2023-10-31T06:55:37;10.60;99.90
36800;DHT22;22752;51.960;5.886;2023-10-31T06:58:03;10.70;99.90
36800;DHT22;22752;51.960;5.886;2023-10-31T07:00:29;10.70;99.90
36800;DHT22;22752;51.960;5.886;2023-10-31T07:02:54;10.70;99.90
36800;DHT22;22752;51.960;5.886;2023-10-31T07:05:20;10.80;99.90
36800;DHT22;22752;51.960;5.886;2023-10-31T07:07:49;10.80;99.90
36800;DHT22;22752;51.960;5.886;2023-10-31T07:10:14;10.80;99.90
36800;DHT22;22752;51.960;5.886;2023-10-31T07:12:40;10.80;99.90
36800;DHT22;22752;51.960;5.886;2023-10-31T07:15:06;10.90;99.90
36800;DHT22;22752;51.960;5.886;2023-10-31T07:17:32;10.90;99.90
36800;DHT22;22752;51.960;5.886;2023-10-31T07:19:58;10.90;99.90
36800;DHT22;22752;51.960;5.886;2023-10-31T07:22:23;10.90;99.90
36800;DHT22;22752;51.960;5.886;2023-10-31T07:24:50;11.00;99.90
36800;DHT22;22752;51.960;5.886;2023-10-31T07:27:17;11.10;99.90
36800;DHT22;22752;51.960;5.886;2023-10-31T07:29:43;11.30;99.90
36800;DHT22;22752;51.960;5.886;2023-10-31T07:32:09;11.50;99.90
36800;DHT22;22752;51.960;5.886;2023-10-31T07:34:35;11.60;99.90
36800;DHT22;22752;51.960;5.886;2023-10-31T07:37:00;11.70;99.90
36800;DHT22;22752;51.960;5.886;2023-10-31T07:39:26;11.80;99.90
36800;DHT22;22752;51.960;5.886;2023-10-31T07:41:51;12.00;99.90
36800;DHT22;22752;51.960;5.886;2023-10-31T07:44:17;12.10;99.90
36800;DHT22;22752;51.960;5.886;2023-10-31T07:46:43;12.30;99.90
36800;DHT22;22752;51.960;5.886;2023-10-31T07:49:08;12.40;99.90
36800;DHT22;22752;51.960;5.886;2023-10-31T07:51:34;12.50;99.90
36800;DHT22;22752;51.960;5.886;2023-10-31T07:54:00;12.50;99.90
36800;DHT22;22752;51.960;5.886;2023-10-31T07:56:26;12.60;99.90
36800;DHT22;22752;51.960;5.886;2023-10-31T07:58:51;12.60;99.90
36800;DHT22;22752;51.960;5.886;2023-10-31T08:01:18;12.60;99.90
36800;DHT22;22752;51.960;5.886;2023-10-31T08:03:45;12.50;99.90
36800;DHT22;22752;51.960;5.886;2023-10-31T08:06:11;12.50;99.90
36800;DHT22;22752;51.960;5.886;2023-10-31T08:08:36;12.40;99.90
36800;DHT22;22752;51.960;5.886;2023-10-31T08:11:02;12.30;99.90
36800;DHT22;22752;51.960;5.886;2023-10-31T08:13:29;12.20;99.90
36800;DHT22;22752;51.960;5.886;2023-10-31T08:15:54;12.20;99.90
36800;DHT22;22752;51.960;5.886;2023-10-31T08:18:23;12.20;99.90
36800;DHT22;22752;51.960;5.886;2023-10-31T08:20:49;12.20;99.90
36800;DHT22;22752;51.960;5.886;2023-10-31T08:23:16;12.30;99.90
36800;DHT22;22752;51.960;5.886;2023-10-31T08:25:43;12.40;99.90
36800;DHT22;22752;51.960;5.886;2023-10-31T08:28:09;12.60;99.90
36800;DHT22;22752;51.960;5.886;2023-10-31T08:30:35;12.70;99.90
36800;DHT22;22752;51.960;5.886;2023-10-31T08:33:01;12.80;99.90
36800;DHT22;22752;51.960;5.886;2023-10-31T08:35:26;12.90;99.90
36800;DHT22;22752;51.960;5.886;2023-10-31T08:37:53;12.90;99.90
36800;DHT22;22752;51.960;5.886;2023-10-31T08:40:18;13.00;99.90
36800;DHT22;22752;51.960;5.886;2023-10-31T08:42:44;12.90;99.90
36800;DHT22;22752;51.960;5.886;2023-10-31T08:45:10;12.90;99.90
36800;DHT22;22752;51.960;5.886;2023-10-31T08:47:35;12.90;99.90
36800;DHT22;22752;51.960;5.886;2023-10-31T08:50:01;12.90;99.90
36800;DHT22;22752;51.960;5.886;2023-10-31T08:52:26;12.80;99.90
36800;DHT22;22752;51.960;5.886;2023-10-31T08:54:52;12.90;99.90
36800;DHT22;22752;51.960;5.886;2023-10-31T08:57:17;12.90;99.90
36800;DHT22;22752;51.960;5.886;2023-10-31T08:59:43;12.90;99.90
36800;DHT22;22752;51.960;5.886;2023-10-31T09:02:09;12.90;99.90
36800;DHT22;22752;51.960;5.886;2023-10-31T09:04:34;13.00;99.90
36800;DHT22;22752;51.960;5.886;2023-10-31T09:07:00;12.90;99.90
36800;DHT22;22752;51.960;5.886;2023-10-31T09:09:26;12.90;99.90
36800;DHT22;22752;51.960;5.886;2023-10-31T09:11:52;12.90;99.90
36800;DHT22;22752;51.960;5.886;2023-10-31T09:14:17;12.90;99.90
36800;DHT22;22752;51.960;5.886;2023-10-31T09:16:43;12.90;99.90
36800;DHT22;22752;51.960;5.886;2023-10-31T09:19:09;12.90;99.90
36800;DHT22;22752;51.960;5.886;2023-10-31T09:21:34;13.10;99.90
36800;DHT22;22752;51.960;5.886;2023-10-31T09:24:00;13.20;99.90
36800;DHT22;22752;51.960;5.886;2023-10-31T09:26:26;13.40;99.90
36800;DHT22;22752;51.960;5.886;2023-10-31T09:28:52;13.60;99.90
36800;DHT22;22752;51.960;5.886;2023-10-31T09:31:18;13.80;99.90
36800;DHT22;22752;51.960;5.886;2023-10-31T09:33:45;13.80;99.90
36800;DHT22;22752;51.960;5.886;2023-10-31T09:36:11;13.90;99.90
36800;DHT22;22752;51.960;5.886;2023-10-31T09:38:38;13.80;99.90
36800;DHT22;22752;51.960;5.886;2023-10-31T09:41:04;13.80;99.90
36800;DHT22;22752;51.960;5.886;2023-10-31T09:43:30;13.80;99.90
36800;DHT22;22752;51.960;5.886;2023-10-31T09:45:56;13.80;99.90
36800;DHT22;22752;51.960;5.886;2023-10-31T09:48:23;13.80;99.90
36800;DHT22;22752;51.960;5.886;2023-10-31T09:50:49;13.90;99.90
36800;DHT22;22752;51.960;5.886;2023-10-31T09:53:15;13.80;99.90
36800;DHT22;22752;51.960;5.886;2023-10-31T09:55:45;13.80;99.90
36800;DHT22;22752;51.960;5.886;2023-10-31T09:58:11;13.70;99.90
36800;DHT22;22752;51.960;5.886;2023-10-31T10:00:37;13.60;99.90
36800;DHT22;22752;51.960;5.886;2023-10-31T10:03:03;13.50;99.90
36800;DHT22;22752;51.960;5.886;2023-10-31T10:05:31;13.40;99.90
36800;DHT22;22752;51.960;5.886;2023-10-31T10:07:57;13.40;99.90
36800;DHT22;22752;51.960;5.886;2023-10-31T10:10:24;13.30;99.90
36800;DHT22;22752;51.960;5.886;2023-10-31T10:12:52;13.30;99.90
36800;DHT22;22752;51.960;5.886;2023-10-31T10:15:18;13.30;99.90
36800;DHT22;22752;51.960;5.886;2023-10-31T10:17:51;13.40;99.90
36800;DHT22;22752;51.960;5.886;2023-10-31T10:20:17;13.60;99.90
36800;DHT22;22752;51.960;5.886;2023-10-31T10:22:44;13.60;99.90
36800;DHT22;22752;51.960;5.886;2023-10-31T10:25:14;13.70;99.90
36800;DHT22;22752;51.960;5.886;2023-10-31T10:27:44;13.80;99.90
36800;DHT22;22752;51.960;5.886;2023-10-31T10:30:12;13.80;99.90
36800;DHT22;22752;51.960;5.886;2023-10-31T10:32:38;13.90;99.90
36800;DHT22;22752;51.960;5.886;2023-10-31T10:35:04;14.00;99.90
36800;DHT22;22752;51.960;5.886;2023-10-31T10:37:30;14.20;99.90
36800;DHT22;22752;51.960;5.886;2023-10-31T10:39:56;14.30;99.90
36800;DHT22;22752;51.960;5.886;2023-10-31T10:42:31;14.40;99.90
36800;DHT22;22752;51.960;5.886;2023-10-31T10:45:02;14.40;99.90
36800;DHT22;22752;51.960;5.886;2023-10-31T10:47:28;14.50;99.90
36800;DHT22;22752;51.960;5.886;2023-10-31T10:49:58;14.50;99.90
36800;DHT22;22752;51.960;5.886;2023-10-31T10:52:30;14.60;99.90
36800;DHT22;22752;51.960;5.886;2023-10-31T10:55:32;14.50;99.90
36800;DHT22;22752;51.960;5.886;2023-10-31T10:58:04;14.50;99.90
36800;DHT22;22752;51.960;5.886;2023-10-31T11:00:30;14.60;99.90
36800;DHT22;22752;51.960;5.886;2023-10-31T11:02:57;14.60;99.90
36800;DHT22;22752;51.960;5.886;2023-10-31T11:05:26;14.70;99.90
36800;DHT22;22752;51.960;5.886;2023-10-31T11:07:52;14.70;99.90
36800;DHT22;22752;51.960;5.886;2023-10-31T11:10:19;14.70;99.90
36800;DHT22;22752;51.960;5.886;2023-10-31T11:12:44;14.70;99.90
36800;DHT22;22752;51.960;5.886;2023-10-31T11:15:14;14.60;99.90
36800;DHT22;22752;51.960;5.886;2023-10-31T11:17:42;14.60;99.90
36800;DHT22;22752;51.960;5.886;2023-10-31T11:20:10;14.60;99.90
36800;DHT22;22752;51.960;5.886;2023-10-31T11:22:44;14.60;99.90
36800;DHT22;22752;51.960;5.886;2023-10-31T11:25:13;14.80;99.90
36800;DHT22;22752;51.960;5.886;2023-10-31T11:27:39;15.00;99.90
36800;DHT22;22752;51.960;5.886;2023-10-31T11:30:30;15.30;99.90
36800;DHT22;22752;51.960;5.886;2023-10-31T11:33:02;15.50;99.90
36800;DHT22;22752;51.960;5.886;2023-10-31T11:35:35;15.60;99.90
36800;DHT22;22752;51.960;5.886;2023-10-31T11:38:09;15.60;99.90
36800;DHT22;22752;51.960;5.886;2023-10-31T11:40:37;15.50;99.90
36800;DHT22;22752;51.960;5.886;2023-10-31T11:43:04;15.50;99.90
36800;DHT22;22752;51.960;5.886;2023-10-31T11:45:43;15.40;99.90
36800;DHT22;22752;51.960;5.886;2023-10-31T11:48:13;15.20;99.90
36800;DHT22;22752;51.960;5.886;2023-10-31T11:50:40;14.90;99.90
36800;DHT22;22752;51.960;5.886;2023-10-31T12:00:38;14.30;99.90
36800;DHT22;22752;51.960;5.886;2023-10-31T12:03:04;14.20;99.90
36800;DHT22;22752;51.960;5.886;2023-10-31T12:05:30;14.20;99.90
36800;DHT22;22752;51.960;5.886;2023-10-31T12:07:56;14.20;99.90
36800;DHT22;22752;51.960;5.886;2023-10-31T12:10:28;14.20;99.90
36800;DHT22;22752;51.960;5.886;2023-10-31T12:12:56;14.20;99.90
36800;DHT22;22752;51.960;5.886;2023-10-31T12:15:22;14.10;99.90
36800;DHT22;22752;51.960;5.886;2023-10-31T12:17:49;14.00;99.90
36800;DHT22;22752;51.960;5.886;2023-10-31T12:20:14;14.00;99.90
36800;DHT22;22752;51.960;5.886;2023-10-31T12:22:42;14.00;99.90
36800;DHT22;22752;51.960;5.886;2023-10-31T12:25:09;13.90;99.90
36800;DHT22;22752;51.960;5.886;2023-10-31T12:27:45;13.80;99.90
36800;DHT22;22752;51.960;5.886;2023-10-31T12:30:13;13.70;99.90
36800;DHT22;22752;51.960;5.886;2023-10-31T12:32:40;13.70;99.90
36800;DHT22;22752;51.960;5.886;2023-10-31T12:35:11;13.70;99.90
36800;DHT22;22752;51.960;5.886;2023-10-31T12:37:47;13.70;99.90
36800;DHT22;22752;51.960;5.886;2023-10-31T12:40:18;13.80;99.90
36800;DHT22;22752;51.960;5.886;2023-10-31T12:42:46;13.90;99.90
36800;DHT22;22752;51.960;5.886;2023-10-31T12:45:12;14.00;99.90
36800;DHT22;22752;51.960;5.886;2023-10-31T12:47:38;14.10;99.90
36800;DHT22;22752;51.960;5.886;2023-10-31T12:50:08;14.20;99.90
36800;DHT22;22752;51.960;5.886;2023-10-31T12:52:50;14.40;99.90
36800;DHT22;22752;51.960;5.886;2023-10-31T12:55:21;14.40;99.90
36800;DHT22;22752;51.960;5.886;2023-10-31T12:57:48;14.40;99.90
36800;DHT22;22752;51.960;5.886;2023-10-31T13:00:15;14.30;99.90
36800;DHT22;22752;51.960;5.886;2023-10-31T13:02:42;14.20;99.90
36800;DHT22;22752;51.960;5.886;2023-10-31T13:05:17;14.20;99.90
36800;DHT22;22752;51.960;5.886;2023-10-31T13:07:51;14.30;99.90
36800;DHT22;22752;51.960;5.886;2023-10-31T13:10:18;14.40;99.90
36800;DHT22;22752;51.960;5.886;2023-10-31T13:12:47;14.50;99.90
36800;DHT22;22752;51.960;5.886;2023-10-31T13:15:14;14.50;99.90
36800;DHT22;22752;51.960;5.886;2023-10-31T13:17:41;14.70;99.90
36800;DHT22;22752;51.960;5.886;2023-10-31T13:20:14;14.80;99.90
36800;DHT22;22752;51.960;5.886;2023-10-31T13:22:41;15.00;99.90
36800;DHT22;22752;51.960;5.886;2023-10-31T13:25:08;15.10;99.90
36800;DHT22;22752;51.960;5.886;2023-10-31T13:27:36;15.00;99.90
36800;DHT22;22752;51.960;5.886;2023-10-31T13:30:03;15.00;99.90
36800;DHT22;22752;51.960;5.886;2023-10-31T13:32:29;14.90;99.90
36800;DHT22;22752;51.960;5.886;2023-10-31T13:34:55;14.70;99.90
36800;DHT22;22752;51.960;5.886;2023-10-31T13:37:20;14.60;99.90
36800;DHT22;22752;51.960;5.886;2023-10-31T13:39:46;14.50;99.90
36800;DHT22;22752;51.960;5.886;2023-10-31T13:42:12;14.40;99.90
36800;DHT22;22752;51.960;5.886;2023-10-31T13:44:43;14.30;99.90
36800;DHT22;22752;51.960;5.886;2023-10-31T13:47:08;14.30;99.90
36800;DHT22;22752;51.960;5.886;2023-10-31T13:49:35;14.20;99.90
36800;DHT22;22752;51.960;5.886;2023-10-31T13:52:00;14.10;99.90
36800;DHT22;22752;51.960;5.886;2023-10-31T13:54:26;14.10;99.90
36800;DHT22;22752;51.960;5.886;2023-10-31T13:56:52;14.10;99.90
36800;DHT22;22752;51.960;5.886;2023-10-31T13:59:18;14.10;99.90
36800;DHT22;22752;51.960;5.886;2023-10-31T14:01:44;14.00;99.90
36800;DHT22;22752;51.960;5.886;2023-10-31T14:04:11;14.00;99.90
36800;DHT22;22752;51.960;5.886;2023-10-31T14:06:41;13.90;99.90
36800;DHT22;22752;51.960;5.886;2023-10-31T14:09:08;13.90;99.90
36800;DHT22;22752;51.960;5.886;2023-10-31T14:11:34;13.90;99.90
36800;DHT22;22752;51.960;5.886;2023-10-31T14:14:00;13.80;99.90
36800;DHT22;22752;51.960;5.886;2023-10-31T14:16:40;13.80;99.90
36800;DHT22;22752;51.960;5.886;2023-10-31T14:19:07;13.70;99.90
36800;DHT22;22752;51.960;5.886;2023-10-31T14:21:36;13.60;99.90
36800;DHT22;22752;51.960;5.886;2023-10-31T14:24:02;13.60;99.90
36800;DHT22;22752;51.960;5.886;2023-10-31T14:26:29;13.50;99.90
36800;DHT22;22752;51.960;5.886;2023-10-31T14:28:55;13.50;99.90
36800;DHT22;22752;51.960;5.886;2023-10-31T14:31:20;13.40;99.90
36800;DHT22;22752;51.960;5.886;2023-10-31T14:33:46;13.30;99.90
36800;DHT22;22752;51.960;5.886;2023-10-31T14:36:12;13.20;99.90
36800;DHT22;22752;51.960;5.886;2023-10-31T14:38:39;13.20;99.90
36800;DHT22;22752;51.960;5.886;2023-10-31T14:41:04;13.10;99.90
36800;DHT22;22752;51.960;5.886;2023-10-31T14:43:30;13.20;99.90
36800;DHT22;22752;51.960;5.886;2023-10-31T14:45:57;13.20;99.90
36800;DHT22;22752;51.960;5.886;2023-10-31T14:48:22;13.30;99.90
36800;DHT22;22752;51.960;5.886;2023-10-31T14:50:48;13.30;99.90
36800;DHT22;22752;51.960;5.886;2023-10-31T14:53:15;13.40;99.90
36800;DHT22;22752;51.960;5.886;2023-10-31T14:55:41;13.40;99.90
36800;DHT22;22752;51.960;5.886;2023-10-31T14:58:06;13.40;99.90
36800;DHT22;22752;51.960;5.886;2023-10-31T15:00:36;13.40;99.90
36800;DHT22;22752;51.960;5.886;2023-10-31T15:03:02;13.50;99.90
36800;DHT22;22752;51.960;5.886;2023-10-31T15:05:28;13.40;99.90
36800;DHT22;22752;51.960;5.886;2023-10-31T15:07:54;13.50;99.90
36800;DHT22;22752;51.960;5.886;2023-10-31T15:10:20;13.50;99.90
36800;DHT22;22752;51.960;5.886;2023-10-31T15:12:50;13.50;99.90
36800;DHT22;22752;51.960;5.886;2023-10-31T15:15:16;13.40;99.90
36800;DHT22;22752;51.960;5.886;2023-10-31T15:17:41;13.40;99.90
36800;DHT22;22752;51.960;5.886;2023-10-31T15:20:08;13.40;99.90
36800;DHT22;22752;51.960;5.886;2023-10-31T15:22:39;13.40;99.90
36800;DHT22;22752;51.960;5.886;2023-10-31T15:25:05;13.30;99.90
36800;DHT22;22752;51.960;5.886;2023-10-31T15:27:31;13.30;99.90
36800;DHT22;22752;51.960;5.886;2023-10-31T15:29:57;13.30;99.90
36800;DHT22;22752;51.960;5.886;2023-10-31T15:32:23;13.30;99.90
36800;DHT22;22752;51.960;5.886;2023-10-31T15:34:48;13.30;99.90